Time;durP1;ratioP1;P1;durP2;ratioP2;P2;SDS_P1;SDS_P2;PMS_P1;PMS_P2;Temp;Humidity;BMP_temperature;BMP_pressure;BME280_temperature;BME280_humidity;BME280_pressure;Samples;Min_cycle;Max_cycle;Signal;HPM_P1;HPM_P2
2022/03/16 00:03:02;;;;;;;30.90;23.43;;;9.70;55.20;;;;;;6201040;28;20486;-60
2022/03/16 00:06:06;;;;;;;30.33;23.40;;;9.70;55.10;;;;;;6225607;28;20492;-59
2022/03/16 00:09:09;;;;;;;25.37;21.47;;;9.70;55.50;;;;;;6243328;28;20483;-59
2022/03/16 00:12:14;;;;;;;27.60;24.33;;;9.70;55.50;;;;;;6238343;28;20471;-60
2022/03/16 00:15:18;;;;;;;26.27;23.37;;;9.70;55.40;;;;;;6241946;28;20953;-59
2022/03/16 00:18:21;;;;;;;27.67;23.43;;;9.70;55.60;;;;;;6230636;28;21014;-59
2022/03/16 00:21:24;;;;;;;30.17;22.33;;;9.70;55.50;;;;;;6225256;28;20491;-60
2022/03/16 00:24:28;;;;;;;25.93;21.50;;;9.70;55.10;;;;;;6225170;28;20517;-59
2022/03/16 00:27:31;;;;;;;25.33;20.27;;;9.80;55.20;;;;;;6226984;28;20776;-59
2022/03/16 00:30:36;;;;;;;22.80;19.93;;;9.80;54.80;;;;;;6242246;28;20477;-59
2022/03/16 00:33:40;;;;;;;33.60;22.60;;;9.90;54.50;;;;;;6226002;28;20447;-59
2022/03/16 00:36:43;;;;;;;25.90;21.37;;;9.80;54.60;;;;;;6226192;28;20451;-61
2022/03/16 00:39:46;;;;;;;26.93;22.63;;;9.80;55.10;;;;;;6228765;28;20463;-61
2022/03/16 00:42:49;;;;;;;25.57;22.50;;;9.80;55.20;;;;;;6227226;28;20470;-60
2022/03/16 00:45:53;;;;;;;25.20;20.43;;;9.80;55.20;;;;;;6227036;28;20476;-59
2022/03/16 00:48:57;;;;;;;32.77;24.60;;;9.80;55.20;;;;;;6225404;28;20478;-60
2022/03/16 00:52:00;;;;;;;31.03;21.43;;;9.70;55.10;;;;;;6224557;28;20485;-60
2022/03/16 00:55:04;;;;;;;29.07;21.10;;;9.70;55.10;;;;;;6224998;28;20481;-60
2022/03/16 00:58:07;;;;;;;22.60;17.13;;;9.70;55.10;;;;;;6224641;28;20480;-59
2022/03/16 01:01:12;;;;;;;19.00;14.00;;;9.60;55.00;;;;;;6224604;28;20847;-59
2022/03/16 01:04:15;;;;;;;15.97;12.40;;;9.70;54.20;;;;;;6224971;28;20474;-61
2022/03/16 01:07:18;;;;;;;18.20;12.10;;;9.70;53.20;;;;;;6225509;28;20533;-61
2022/03/16 01:10:21;;;;;;;18.50;13.83;;;9.80;52.90;;;;;;6224874;28;20487;-60
2022/03/16 01:13:24;;;;;;;15.97;12.40;;;9.90;52.80;;;;;;6224729;28;20486;-60
2022/03/16 01:16:29;;;;;;;16.20;12.53;;;9.80;52.50;;;;;;6225139;28;20536;-61
2022/03/16 01:19:34;;;;;;;14.73;12.00;;;9.80;52.40;;;;;;6215300;28;20489;-61
2022/03/16 01:22:38;;;;;;;19.77;12.10;;;9.90;52.40;;;;;;6224938;28;20478;-62
2022/03/16 01:25:41;;;;;;;17.03;13.00;;;9.90;52.10;;;;;;6228733;28;20486;-60
2022/03/16 01:28:44;;;;;;;14.50;12.80;;;10.00;51.40;;;;;;6228967;28;20552;-60
2022/03/16 01:31:48;;;;;;;16.50;13.07;;;10.00;51.10;;;;;;6228847;28;20850;-59
2022/03/16 01:34:51;;;;;;;14.90;12.00;;;10.00;51.30;;;;;;6229405;28;20479;-60
2022/03/16 01:37:54;;;;;;;12.60;11.07;;;10.00;51.40;;;;;;6228672;28;20478;-60
2022/03/16 01:40:58;;;;;;;16.73;11.40;;;10.00;51.10;;;;;;6228301;28;20498;-60
2022/03/16 01:44:01;;;;;;;11.37;10.17;;;10.00;51.10;;;;;;6229330;28;20937;-59
2022/03/16 01:47:06;;;;;;;14.10;11.93;;;9.90;52.10;;;;;;6228726;28;20480;-60
2022/03/16 01:50:10;;;;;;;14.00;10.50;;;10.00;51.80;;;;;;6228772;28;20544;-59
2022/03/16 01:53:14;;;;;;;13.03;11.70;;;10.10;51.10;;;;;;6228505;28;20496;-59
2022/03/16 01:56:18;;;;;;;13.33;10.00;;;10.10;51.10;;;;;;6229019;28;20973;-59
2022/03/16 01:59:21;;;;;;;16.60;11.70;;;10.10;50.70;;;;;;6228262;28;20495;-59
2022/03/16 02:02:25;;;;;;;11.87;10.43;;;10.10;50.70;;;;;;6228167;28;20553;-60
2022/03/16 02:05:29;;;;;;;13.03;10.33;;;10.10;50.80;;;;;;6228589;28;20487;-60
2022/03/16 02:08:35;;;;;;;12.10;10.67;;;10.20;50.70;;;;;;6228325;28;21037;-60
2022/03/16 02:11:38;;;;;;;10.47;9.57;;;10.20;51.10;;;;;;6239485;28;20559;-60
2022/03/16 02:14:41;;;;;;;14.13;11.60;;;10.20;50.40;;;;;;6232928;28;20557;-60
2022/03/16 02:17:50;;;;;;;12.23;8.87;;;10.10;50.70;;;;;;6227797;28;20470;-59
2022/03/16 02:20:55;;;;;;;10.47;9.20;;;10.10;51.10;;;;;;6227982;28;20497;-59
2022/03/16 02:24:01;;;;;;;11.87;9.33;;;10.20;51.70;;;;;;6218447;28;20493;-59
2022/03/16 02:27:04;;;;;;;12.87;9.27;;;10.10;51.80;;;;;;6228068;28;20475;-59
2022/03/16 02:30:09;;;;;;;13.07;8.70;;;10.10;51.90;;;;;;6227949;28;21015;-60
2022/03/16 02:33:13;;;;;;;12.10;9.07;;;10.10;51.90;;;;;;6227462;28;20476;-60
2022/03/16 02:36:16;;;;;;;12.60;8.50;;;10.20;52.30;;;;;;6225932;28;20516;-60
2022/03/16 02:39:21;;;;;;;10.60;8.70;;;10.30;52.50;;;;;;6227030;28;20999;-59
2022/03/16 02:42:24;;;;;;;12.70;9.23;;;10.30;52.80;;;;;;6227080;28;20548;-60
2022/03/16 02:45:27;;;;;;;13.93;8.50;;;10.40;52.60;;;;;;6227406;28;20829;-60
2022/03/16 02:48:30;;;;;;;8.80;7.90;;;10.40;52.50;;;;;;6227750;28;20458;-60
2022/03/16 02:51:33;;;;;;;12.40;9.30;;;10.50;52.50;;;;;;6226695;28;20842;-61
2022/03/16 02:54:38;;;;;;;12.50;8.60;;;10.50;52.80;;;;;;6227181;28;20443;-60
2022/03/16 02:57:42;;;;;;;11.80;8.83;;;10.50;52.80;;;;;;6227392;28;20461;-60
2022/03/16 03:00:45;;;;;;;12.33;10.00;;;10.50;52.90;;;;;;6227155;28;20487;-60
2022/03/16 03:03:48;;;;;;;11.30;8.53;;;10.60;53.20;;;;;;6226811;28;20489;-60
2022/03/16 03:06:51;;;;;;;13.03;8.77;;;10.50;53.70;;;;;;6227745;28;20478;-60
2022/03/16 03:09:56;;;;;;;11.60;9.00;;;10.50;54.30;;;;;;6227000;28;20494;-61
2022/03/16 03:12:59;;;;;;;11.87;7.87;;;10.60;54.40;;;;;;6226841;28;20471;-60
2022/03/16 03:16:03;;;;;;;15.03;10.73;;;10.60;54.90;;;;;;6227265;28;20494;-60
2022/03/16 03:19:06;;;;;;;13.83;9.83;;;10.60;54.90;;;;;;6228291;28;20471;-63
2022/03/16 03:22:09;;;;;;;8.80;7.50;;;10.60;55.60;;;;;;6227965;28;20479;-61
2022/03/16 03:25:15;;;;;;;13.07;7.80;;;10.60;55.70;;;;;;6226404;28;20806;-62
2022/03/16 03:28:18;;;;;;;10.43;8.40;;;10.60;56.80;;;;;;6226307;28;20479;-60
2022/03/16 03:31:21;;;;;;;11.00;7.50;;;10.60;57.70;;;;;;6226240;28;21009;-61
2022/03/16 03:34:24;;;;;;;14.13;7.47;;;10.60;58.40;;;;;;6226483;28;20484;-60
2022/03/16 03:37:29;;;;;;;11.00;7.50;;;10.60;58.70;;;;;;6229629;28;20492;-61
2022/03/16 03:40:34;;;;;;;8.13;7.40;;;10.70;58.90;;;;;;6229859;28;20479;-61
2022/03/16 03:43:37;;;;;;;8.10;6.27;;;10.70;59.10;;;;;;6229040;28;20483;-63
2022/03/16 03:46:45;;;;;;;10.07;7.60;;;10.70;59.20;;;;;;6228197;28;20484;-62
2022/03/16 03:49:50;;;;;;;9.53;7.23;;;10.60;59.60;;;;;;6229328;28;20655;-61
2022/03/16 03:52:53;;;;;;;10.40;7.80;;;10.70;60.80;;;;;;6238534;28;20498;-61
2022/03/16 03:55:58;;;;;;;10.43;7.13;;;10.60;60.20;;;;;;6230522;28;20475;-59
2022/03/16 03:59:01;;;;;;;10.73;6.90;;;10.60;60.70;;;;;;6227297;28;20490;-61
2022/03/16 04:02:04;;;;;;;9.07;7.37;;;10.60;61.50;;;;;;6228227;28;20509;-62
2022/03/16 04:05:08;;;;;;;10.70;7.83;;;10.50;62.10;;;;;;6228129;28;20838;-62
2022/03/16 04:08:11;;;;;;;10.87;7.50;;;10.50;62.60;;;;;;6228111;28;20536;-61
2022/03/16 04:11:16;;;;;;;8.20;7.40;;;10.50;63.10;;;;;;6228058;28;20490;-61
2022/03/16 04:14:19;;;;;;;7.60;6.73;;;10.50;63.50;;;;;;6228775;28;20544;-62
2022/03/16 04:17:22;;;;;;;9.63;6.80;;;10.50;63.80;;;;;;6228714;28;20482;-62
2022/03/16 04:20:25;;;;;;;7.43;6.53;;;10.50;64.30;;;;;;6227014;28;20946;-60
2022/03/16 04:23:28;;;;;;;14.40;6.53;;;10.40;64.50;;;;;;6225241;28;20475;-59
2022/03/16 04:26:34;;;;;;;11.83;6.77;;;10.50;65.00;;;;;;6225007;28;20477;-59
2022/03/16 04:29:37;;;;;;;12.97;6.70;;;10.50;65.10;;;;;;6220424;28;20943;-60
2022/03/16 04:32:40;;;;;;;10.60;7.37;;;10.50;65.30;;;;;;6224615;28;21088;-61
2022/03/16 04:35:43;;;;;;;9.70;7.93;;;10.50;65.40;;;;;;6225128;28;20481;-59
2022/03/16 04:38:46;;;;;;;14.97;8.93;;;10.60;65.50;;;;;;6225030;28;20541;-59
2022/03/16 04:41:51;;;;;;;22.93;20.50;;;10.60;65.60;;;;;;6224699;28;20500;-59
2022/03/16 04:44:54;;;;;;;24.87;18.90;;;10.50;61.20;;;;;;6225041;28;20490;-59
2022/03/16 04:47:57;;;;;;;27.10;20.87;;;10.10;61.10;;;;;;6225145;28;20998;-59
2022/03/16 04:51:06;;;;;;;24.73;21.33;;;9.90;62.60;;;;;;6225495;28;20494;-59
2022/03/16 04:54:09;;;;;;;22.37;20.07;;;9.70;63.10;;;;;;6225085;28;20490;-59
2022/03/16 04:57:14;;;;;;;36.10;23.50;;;9.60;63.90;;;;;;6224441;28;20481;-59
2022/03/16 05:00:17;;;;;;;28.03;23.43;;;9.40;64.30;;;;;;6228891;28;20491;-59
2022/03/16 05:03:20;;;;;;;28.30;21.33;;;9.40;64.90;;;;;;6229160;28;20976;-60
2022/03/16 05:06:24;;;;;;;26.70;22.93;;;9.30;65.30;;;;;;6229423;28;20475;-60
2022/03/16 05:09:27;;;;;;;27.57;23.10;;;9.30;65.40;;;;;;6229194;28;20491;-60
2022/03/16 05:12:37;;;;;;;23.13;20.70;;;9.20;65.30;;;;;;6229348;28;20461;-59
2022/03/16 05:15:40;;;;;;;30.53;23.97;;;9.10;65.80;;;;;;6229329;28;20442;-59
2022/03/16 05:18:45;;;;;;;29.40;23.20;;;9.10;65.90;;;;;;6229476;28;20473;-59
2022/03/16 05:21:48;;;;;;;26.73;21.37;;;9.10;65.80;;;;;;6229382;28;20474;-59
2022/03/16 05:24:52;;;;;;;27.90;22.00;;;9.10;65.60;;;;;;6229528;28;20489;-59
2022/03/16 05:27:58;;;;;;;25.80;21.50;;;9.00;65.60;;;;;;6229404;28;20872;-62
2022/03/16 05:31:01;;;;;;;27.23;20.67;;;9.00;65.50;;;;;;6225383;28;20963;-60
2022/03/16 05:34:04;;;;;;;22.63;19.40;;;9.00;65.60;;;;;;6242882;28;20475;-59
2022/03/16 05:37:07;;;;;;;23.50;20.03;;;8.90;65.30;;;;;;6239161;28;20467;-60
2022/03/16 05:40:12;;;;;;;22.90;18.93;;;8.90;65.30;;;;;;6229420;28;20490;-60
2022/03/16 05:43:16;;;;;;;23.77;20.47;;;8.90;65.50;;;;;;6228678;28;20486;-60
2022/03/16 05:46:19;;;;;;;26.03;19.73;;;9.00;65.60;;;;;;6229451;28;20471;-61
2022/03/16 05:49:25;;;;;;;25.50;19.10;;;9.10;65.40;;;;;;6228846;28;20494;-61
2022/03/16 05:52:32;;;;;;;21.40;18.17;;;9.30;64.90;;;;;;6228635;28;21006;-62
2022/03/16 05:55:35;;;;;;;23.40;18.30;;;9.40;64.30;;;;;;6228351;28;20498;-62
2022/03/16 05:58:39;;;;;;;26.60;18.33;;;9.50;64.40;;;;;;6228110;28;20477;-60
2022/03/16 06:01:42;;;;;;;28.20;19.37;;;9.50;63.80;;;;;;6214558;28;20479;-61
2022/03/16 06:04:46;;;;;;;25.30;17.57;;;9.50;63.50;;;;;;6204261;28;20469;-61
2022/03/16 06:07:49;;;;;;;24.87;18.87;;;9.60;63.50;;;;;;6203858;28;20539;-60
2022/03/16 06:10:52;;;;;;;23.37;18.47;;;9.60;63.40;;;;;;6203535;28;20554;-60
2022/03/16 06:13:56;;;;;;;37.37;20.00;;;9.70;63.20;;;;;;6203642;28;20797;-60
2022/03/16 06:17:00;;;;;;;28.87;18.80;;;9.80;63.30;;;;;;6204334;28;20483;-60
2022/03/16 06:20:03;;;;;;;24.13;16.97;;;9.90;63.70;;;;;;6203623;28;20983;-61
2022/03/16 06:23:08;;;;;;;25.47;18.50;;;10.00;63.40;;;;;;6203908;28;20491;-60
2022/03/16 06:26:15;;;;;;;22.03;18.53;;;10.00;62.90;;;;;;6203586;28;20780;-60
2022/03/16 06:29:20;;;;;;;27.73;18.57;;;10.10;63.00;;;;;;6203549;28;20485;-60
2022/03/16 06:32:23;;;;;;;29.53;18.83;;;10.20;63.20;;;;;;6204247;28;20476;-60
2022/03/16 06:35:26;;;;;;;20.93;17.80;;;10.30;63.30;;;;;;6199791;28;20478;-60
2022/03/16 06:38:29;;;;;;;20.83;18.20;;;10.30;62.80;;;;;;6203822;28;20568;-60
2022/03/16 06:41:33;;;;;;;22.90;18.20;;;10.50;62.80;;;;;;6203594;28;20487;-61
2022/03/16 06:44:37;;;;;;;22.10;17.43;;;10.60;62.50;;;;;;6203722;28;20480;-60
2022/03/16 06:47:40;;;;;;;21.27;17.13;;;10.70;62.30;;;;;;6214098;28;20910;-60
2022/03/16 06:50:43;;;;;;;22.60;16.47;;;10.80;62.20;;;;;;6219614;28;20478;-60
2022/03/16 06:53:46;;;;;;;21.00;16.53;;;10.90;62.10;;;;;;6233242;28;20467;-60
2022/03/16 06:56:50;;;;;;;20.67;15.57;;;11.10;61.90;;;;;;6227864;28;20478;-60
2022/03/16 06:59:54;;;;;;;20.07;16.03;;;11.20;62.00;;;;;;6227730;28;20482;-61
2022/03/16 07:03:00;;;;;;;17.47;13.87;;;11.30;62.40;;;;;;6202702;28;20491;-60
2022/03/16 07:06:03;;;;;;;21.97;14.70;;;11.40;62.80;;;;;;6201364;28;20490;-60
2022/03/16 07:09:06;;;;;;;26.60;16.23;;;11.50;62.40;;;;;;6201079;28;20491;-61
2022/03/16 07:12:10;;;;;;;16.90;14.50;;;11.50;62.60;;;;;;6200985;28;20538;-59
2022/03/16 07:15:15;;;;;;;21.43;13.73;;;11.60;63.10;;;;;;6201286;28;20584;-61
2022/03/16 07:18:19;;;;;;;16.60;12.17;;;11.70;63.70;;;;;;6211571;28;20819;-60
2022/03/16 07:21:23;;;;;;;15.83;12.20;;;11.80;64.80;;;;;;6213124;28;20479;-60
2022/03/16 07:24:26;;;;;;;17.50;11.27;;;11.90;65.20;;;;;;6224766;28;20495;-60
2022/03/16 07:27:30;;;;;;;16.90;13.00;;;11.90;64.70;;;;;;6226327;28;20459;-61
2022/03/16 07:30:35;;;;;;;14.50;11.20;;;12.00;63.20;;;;;;6226595;28;20463;-61
2022/03/16 07:33:38;;;;;;;11.40;7.60;;;12.00;62.90;;;;;;6224644;28;20745;-60
2022/03/16 07:36:42;;;;;;;8.60;5.90;;;12.10;64.80;;;;;;6224214;28;20454;-60
2022/03/16 07:39:45;;;;;;;7.67;5.60;;;12.30;66.20;;;;;;6210204;28;20787;-62
2022/03/16 07:42:54;;;;;;;10.63;6.67;;;12.50;66.50;;;;;;6225522;28;20468;-62
2022/03/16 07:45:59;;;;;;;6.67;5.10;;;12.70;66.70;;;;;;6225506;28;20482;-62
2022/03/16 07:49:02;;;;;;;7.87;5.33;;;13.10;65.10;;;;;;6225677;28;20610;-62
2022/03/16 07:52:06;;;;;;;5.50;5.00;;;13.60;63.70;;;;;;6228486;28;20850;-62
2022/03/16 07:55:10;;;;;;;6.17;3.90;;;14.40;60.30;;;;;;6229099;28;20801;-62
2022/03/16 07:58:13;;;;;;;4.50;2.10;;;15.40;56.10;;;;;;6228492;28;20476;-63
2022/03/16 08:01:18;;;;;;;3.03;2.40;;;16.20;51.30;;;;;;6257634;23;20463;-62
2022/03/16 08:04:21;;;;;;;1.73;1.43;;;17.00;49.50;;;;;;6254411;28;20546;-61
2022/03/16 08:07:26;;;;;;;2.83;2.00;;;17.80;46.20;;;;;;6254150;28;20919;-62
2022/03/16 08:10:29;;;;;;;2.83;1.83;;;18.50;44.50;;;;;;6272355;28;20816;-62
2022/03/16 08:13:32;;;;;;;6.33;1.70;;;18.70;42.00;;;;;;6278583;28;20659;-62
2022/03/16 08:16:36;;;;;;;2.00;1.80;;;19.10;41.20;;;;;;6278679;28;20231;-62
2022/03/16 08:19:40;;;;;;;9.53;2.83;;;19.80;39.80;;;;;;6277165;28;20250;-62
2022/03/16 08:22:43;;;;;;;2.23;2.00;;;20.60;38.30;;;;;;6269964;28;20239;-62
2022/03/16 08:25:47;;;;;;;4.03;2.20;;;21.30;36.90;;;;;;6253448;28;20599;-63
2022/03/16 08:28:50;;;;;;;5.17;2.03;;;22.10;35.10;;;;;;6254892;28;20232;-63
2022/03/16 08:31:54;;;;;;;7.80;2.37;;;22.80;33.60;;;;;;6254489;28;20231;-63
2022/03/16 08:34:57;;;;;;;3.20;2.53;;;23.50;32.30;;;;;;6258270;28;20246;-63
2022/03/16 08:38:01;;;;;;;3.20;1.80;;;23.90;30.80;;;;;;6256916;28;20236;-62
2022/03/16 08:41:04;;;;;;;2.50;2.27;;;24.10;30.30;;;;;;6256938;28;20238;-63
2022/03/16 08:44:08;;;;;;;6.00;2.77;;;24.50;29.80;;;;;;6247218;28;20555;-63
2022/03/16 08:47:16;;;;;;;2.67;2.40;;;24.70;28.70;;;;;;6257373;28;20575;-64
2022/03/16 08:50:20;;;;;;;2.70;2.47;;;24.60;28.60;;;;;;6257206;28;20228;-63
2022/03/16 08:53:25;;;;;;;2.90;1.97;;;24.90;28.80;;;;;;6257493;28;20231;-63
2022/03/16 08:56:28;;;;;;;2.10;1.90;;;25.20;28.20;;;;;;6257550;28;20235;-63
2022/03/16 08:59:31;;;;;;;2.03;1.90;;;25.40;27.80;;;;;;6257773;28;20239;-63
2022/03/16 09:02:36;;;;;;;2.57;2.30;;;25.30;27.50;;;;;;6278351;28;20231;-63
2022/03/16 09:05:40;;;;;;;2.50;2.03;;;24.60;27.70;;;;;;6280190;28;20239;-62
2022/03/16 09:08:43;;;;;;;2.70;2.40;;;23.90;28.10;;;;;;6280859;28;20240;-64
2022/03/16 09:11:47;;;;;;;2.50;2.10;;;23.70;28.50;;;;;;6282952;28;20235;-62
2022/03/16 09:14:51;;;;;;;2.87;2.40;;;23.90;28.80;;;;;;6291100;28;20303;-62
2022/03/16 09:17:55;;;;;;;2.93;2.60;;;23.40;28.30;;;;;;6284613;28;20231;-63
2022/03/16 09:21:00;;;;;;;3.43;3.10;;;23.30;28.30;;;;;;6281199;28;20235;-63
2022/03/16 09:24:04;;;;;;;6.90;3.10;;;22.90;28.50;;;;;;6260351;28;20232;-65
2022/03/16 09:27:08;;;;;;;5.70;3.53;;;22.80;30.20;;;;;;6254579;28;20239;-65
2022/03/16 09:30:12;;;;;;;3.13;2.80;;;22.20;28.70;;;;;;6255726;28;20243;-64
2022/03/16 09:33:17;;;;;;;3.53;2.77;;;21.80;29.30;;;;;;6254403;28;20680;-63
2022/03/16 09:36:20;;;;;;;3.20;2.90;;;21.60;29.50;;;;;;6253193;28;20231;-62
2022/03/16 09:39:23;;;;;;;3.60;3.30;;;21.70;29.50;;;;;;6254855;28;20672;-64
2022/03/16 09:42:30;;;;;;;4.93;2.70;;;21.40;29.80;;;;;;6256703;28;20320;-63
2022/03/16 09:45:40;;;;;;;2.73;2.53;;;21.30;30.00;;;;;;6247028;28;20228;-63
2022/03/16 09:48:45;;;;;;;4.00;3.10;;;21.40;30.10;;;;;;6255841;28;20228;-64
2022/03/16 09:51:50;;;;;;;2.80;2.40;;;21.20;30.50;;;;;;6254263;28;20205;-63
2022/03/16 09:54:54;;;;;;;2.80;2.60;;;21.10;30.80;;;;;;6255762;28;20233;-63
2022/03/16 09:57:57;;;;;;;3.20;2.67;;;20.90;30.20;;;;;;6257956;28;20236;-63
2022/03/16 10:01:05;;;;;;;3.10;2.80;;;20.50;31.50;;;;;;6255530;28;20247;-63
2022/03/16 10:04:10;;;;;;;2.87;2.47;;;20.10;31.20;;;;;;6254537;28;20327;-64
2022/03/16 10:07:13;;;;;;;2.50;2.30;;;20.00;32.10;;;;;;6254604;28;20288;-63
2022/03/16 10:13:52;;;;;;;2.50;2.40;;;19.30;31.70;;;;;;6255072;28;20699;-62
2022/03/16 10:20:30;;;;;;;4.33;2.83;;;18.60;32.60;;;;;;6254741;28;20228;-64
2022/03/16 10:23:37;;;;;;;2.97;2.40;;;18.40;32.80;;;;;;6254314;28;20228;-63
2022/03/16 10:26:52;;;;;;;5.27;3.20;;;18.30;32.90;;;;;;6254143;28;20224;-65
2022/03/16 10:29:55;;;;;;;2.93;2.73;;;18.30;32.60;;;;;;6253850;28;20689;-63
2022/03/16 10:32:59;;;;;;;3.40;3.10;;;18.40;32.60;;;;;;6253558;28;20234;-61
2022/03/16 10:36:06;;;;;;;4.33;3.30;;;18.30;31.90;;;;;;6253640;28;20224;-61
2022/03/16 10:39:09;;;;;;;2.90;2.70;;;18.20;32.20;;;;;;6254272;28;20244;-62
2022/03/16 10:49:06;;;;;;;4.97;3.90;;;17.90;32.70;;;;;;6213086;28;20240;-61
2022/03/16 10:52:14;;;;;;;3.37;3.07;;;17.70;32.80;;;;;;6252796;28;20255;-63
2022/03/16 10:55:18;;;;;;;3.17;2.87;;;17.70;33.30;;;;;;6251705;28;20232;-62
2022/03/16 10:58:23;;;;;;;4.20;3.90;;;17.80;33.10;;;;;;6251229;28;20248;-60
2022/03/16 11:01:27;;;;;;;3.50;3.20;;;18.00;33.00;;;;;;6263552;28;20473;-65
2022/03/16 11:04:32;;;;;;;3.70;3.40;;;18.30;32.60;;;;;;6275954;28;20227;-64
2022/03/16 11:07:38;;;;;;;4.87;3.10;;;18.50;32.50;;;;;;6277400;28;20247;-64
2022/03/16 11:10:43;;;;;;;4.70;4.30;;;18.60;32.30;;;;;;6290611;28;20239;-61
2022/03/16 11:13:48;;;;;;;4.93;4.37;;;18.70;32.30;;;;;;6280543;28;20238;-61
2022/03/16 11:16:52;;;;;;;3.40;3.10;;;18.80;32.20;;;;;;6262377;28;20576;-61
2022/03/16 11:19:56;;;;;;;4.50;3.70;;;18.90;32.10;;;;;;6250875;28;20675;-63
2022/03/16 11:26:38;;;;;;;3.80;3.50;;;18.50;31.60;;;;;;6251330;28;20755;-65
2022/03/16 11:29:50;;;;;;;4.07;3.77;;;18.50;32.50;;;;;;6250994;28;20240;-61
2022/03/16 11:33:01;;;;;;;5.03;4.53;;;18.60;31.50;;;;;;6250566;28;20239;-64
2022/03/16 11:36:05;;;;;;;4.17;3.77;;;18.50;31.30;;;;;;6249789;28;20232;-62
2022/03/16 11:39:20;;;;;;;5.50;5.00;;;18.30;31.50;;;;;;6250120;28;20603;-60
2022/03/16 11:42:24;;;;;;;4.33;3.93;;;18.10;31.90;;;;;;6249531;28;20335;-60
2022/03/16 11:45:38;;;;;;;4.90;4.40;;;17.80;32.30;;;;;;6250866;28;20664;-61
2022/03/16 11:48:48;;;;;;;5.77;5.27;;;17.50;32.50;;;;;;6249291;28;20216;-61
2022/03/16 11:52:00;;;;;;;6.33;4.90;;;17.40;33.10;;;;;;6226927;28;20457;-62
2022/03/16 11:55:05;;;;;;;5.50;4.67;;;17.40;33.20;;;;;;6249628;28;20525;-62
2022/03/16 11:58:32;;;;;;;5.17;4.73;;;17.20;32.90;;;;;;6248195;28;20228;-61
2022/03/16 12:01:37;;;;;;;5.43;5.03;;;17.10;33.20;;;;;;6244142;28;20493;-61
2022/03/16 12:04:42;;;;;;;7.83;6.63;;;17.10;33.50;;;;;;6275235;28;20508;-60
2022/03/16 12:07:47;;;;;;;6.27;5.67;;;16.80;33.40;;;;;;6275192;28;20522;-60
2022/03/16 12:12:50;;;;;;;8.87;6.73;;;16.60;33.10;;;;;;6275553;28;20532;-61
2022/03/16 12:14:18;;;;;;;7.93;7.10;;;16.40;33.60;;;;;;6274969;28;20489;-62
2022/03/16 12:17:22;;;;;;;7.40;6.73;;;16.20;34.10;;;;;;6275122;28;20466;-61
2022/03/16 12:20:27;;;;;;;7.23;6.37;;;16.10;34.00;;;;;;6274644;28;20520;-59
2022/03/16 12:25:08;;;;;;;7.40;6.70;;;16.00;33.90;;;;;;6260478;28;20467;-60
2022/03/16 12:30:58;;;;;;;7.40;6.80;;;15.90;34.70;;;;;;6214552;28;20485;-59
2022/03/16 12:34:01;;;;;;;9.20;8.30;;;15.90;34.60;;;;;;6250247;28;20484;-61
2022/03/16 12:37:12;;;;;;;8.00;7.30;;;15.80;34.70;;;;;;6250540;28;20467;-61
2022/03/16 12:40:15;;;;;;;8.87;6.40;;;15.90;35.20;;;;;;6249737;28;20494;-60
2022/03/16 12:43:22;;;;;;;8.97;8.23;;;16.00;35.20;;;;;;6250160;28;20483;-60
2022/03/16 12:46:28;;;;;;;9.60;8.10;;;16.10;34.80;;;;;;6250053;28;20716;-61
2022/03/16 12:49:33;;;;;;;7.30;6.70;;;15.90;34.70;;;;;;6249741;28;20482;-61
2022/03/16 12:52:37;;;;;;;8.30;7.43;;;16.00;35.00;;;;;;6249291;28;20483;-58
2022/03/16 12:55:55;;;;;;;9.60;8.60;;;16.00;35.50;;;;;;6249390;28;20479;-58
2022/03/16 12:58:59;;;;;;;9.80;8.90;;;16.10;35.60;;;;;;6243721;28;20496;-61
2022/03/16 13:02:06;;;;;;;9.13;8.30;;;16.00;34.70;;;;;;6279288;28;20478;-60
2022/03/16 13:05:11;;;;;;;8.90;8.20;;;16.00;34.90;;;;;;6276530;28;20829;-61
2022/03/16 13:08:17;;;;;;;9.23;8.43;;;16.00;35.40;;;;;;6278881;28;20481;-62
2022/03/16 13:11:22;;;;;;;9.43;8.63;;;15.90;34.90;;;;;;6276582;28;20478;-62
2022/03/16 13:14:29;;;;;;;9.40;8.60;;;15.90;35.10;;;;;;6274587;28;20474;-60
2022/03/16 13:17:37;;;;;;;10.83;9.73;;;15.90;35.50;;;;;;6275354;28;20553;-63
2022/03/16 13:20:40;;;;;;;10.70;8.80;;;15.90;35.40;;;;;;6277805;28;20553;-62
2022/03/16 13:23:44;;;;;;;10.50;9.50;;;15.80;35.40;;;;;;6264263;28;20474;-60
2022/03/16 13:26:49;;;;;;;10.13;9.33;;;15.70;35.70;;;;;;6244721;28;21030;-59
2022/03/16 13:29:55;;;;;;;10.87;9.87;;;15.40;35.70;;;;;;6235410;28;20486;-62
2022/03/16 13:33:06;;;;;;;11.57;10.57;;;15.20;36.70;;;;;;6254105;28;20529;-62
2022/03/16 13:36:10;;;;;;;10.40;9.50;;;15.10;36.20;;;;;;6253569;28;20494;-61
2022/03/16 13:39:22;;;;;;;10.63;9.20;;;15.10;36.50;;;;;;6253957;28;20979;-61
2022/03/16 13:42:29;;;;;;;11.40;10.20;;;15.10;36.70;;;;;;6253305;28;20478;-60
2022/03/16 13:45:41;;;;;;;11.70;10.60;;;15.20;37.00;;;;;;6253841;28;20470;-62
2022/03/16 13:48:45;;;;;;;11.80;10.57;;;15.10;36.90;;;;;;6254137;28;20474;-59
2022/03/16 13:52:08;;;;;;;10.83;9.90;;;15.10;37.40;;;;;;6253128;28;21128;-60
2022/03/16 13:55:12;;;;;;;11.37;10.20;;;15.10;37.50;;;;;;6253115;28;20475;-60
2022/03/16 13:58:18;;;;;;;11.90;10.67;;;15.10;37.60;;;;;;6253997;28;20475;-61
2022/03/16 14:01:23;;;;;;;12.23;11.03;;;15.10;37.60;;;;;;6259204;28;20497;-61
2022/03/16 14:04:31;;;;;;;13.50;11.20;;;15.10;37.50;;;;;;6277582;28;20475;-61
2022/03/16 14:07:39;;;;;;;12.77;11.57;;;15.10;38.00;;;;;;6277490;28;20474;-62
2022/03/16 14:10:42;;;;;;;12.17;10.97;;;15.00;38.00;;;;;;6277199;28;20475;-61
2022/03/16 14:13:45;;;;;;;13.00;11.80;;;15.00;37.90;;;;;;6277410;28;20481;-61
2022/03/16 14:16:54;;;;;;;13.57;12.20;;;14.90;38.30;;;;;;6277421;28;21178;-62
2022/03/16 14:19:57;;;;;;;12.03;10.83;;;15.00;38.30;;;;;;6277181;28;20489;-63
2022/03/16 14:23:04;;;;;;;12.30;11.20;;;14.90;38.30;;;;;;6266868;28;20478;-62
2022/03/16 14:26:07;;;;;;;13.53;12.33;;;14.90;38.50;;;;;;6252354;28;20476;-62
2022/03/16 14:29:10;;;;;;;13.43;12.17;;;14.90;38.70;;;;;;6252537;28;20486;-62
2022/03/16 14:32:15;;;;;;;14.00;12.70;;;14.80;38.70;;;;;;6251974;28;20475;-63
2022/03/16 14:35:20;;;;;;;14.50;12.50;;;14.70;38.70;;;;;;6252115;28;20783;-65
2022/03/16 14:38:24;;;;;;;13.40;12.00;;;14.80;38.80;;;;;;6251743;28;20475;-63
2022/03/16 14:41:29;;;;;;;14.30;12.90;;;14.70;38.80;;;;;;6252200;28;20475;-62
2022/03/16 14:44:32;;;;;;;16.07;14.67;;;14.60;38.90;;;;;;6252053;28;20825;-62
2022/03/16 14:47:37;;;;;;;15.77;13.00;;;14.40;39.20;;;;;;6259151;28;20986;-62
2022/03/16 14:50:40;;;;;;;14.07;12.77;;;14.30;39.50;;;;;;6257645;28;20990;-63
2022/03/16 14:53:43;;;;;;;14.73;13.20;;;14.20;40.00;;;;;;6252621;28;20834;-63
2022/03/16 14:56:47;;;;;;;13.67;12.47;;;14.20;39.70;;;;;;6252125;28;20474;-64
2022/03/16 14:59:50;;;;;;;13.93;12.63;;;14.20;40.00;;;;;;6251399;28;20487;-63
2022/03/16 15:02:55;;;;;;;14.90;13.60;;;14.30;39.80;;;;;;6275440;28;20759;-63
2022/03/16 15:05:59;;;;;;;12.83;11.63;;;14.30;40.00;;;;;;6235351;28;20936;-63
2022/03/16 15:09:03;;;;;;;14.03;12.70;;;14.40;39.90;;;;;;6237988;28;20471;-63
2022/03/16 15:12:07;;;;;;;17.13;13.57;;;14.30;39.80;;;;;;6247589;28;20479;-63
2022/03/16 15:15:11;;;;;;;15.43;14.07;;;14.30;40.80;;;;;;6225546;28;20472;-63
2022/03/16 15:18:16;;;;;;;13.80;12.50;;;14.40;39.80;;;;;;6224753;28;20487;-63
2022/03/16 15:21:19;;;;;;;13.30;12.00;;;14.40;39.90;;;;;;6232570;28;20944;-64
2022/03/16 15:24:22;;;;;;;14.20;12.90;;;14.40;40.20;;;;;;6250393;28;20475;-63
2022/03/16 15:27:29;;;;;;;14.20;12.90;;;14.40;39.70;;;;;;6250272;28;20971;-64
2022/03/16 15:30:33;;;;;;;16.37;14.67;;;14.30;40.20;;;;;;6250511;28;20931;-63
2022/03/16 15:33:45;;;;;;;15.23;13.73;;;14.20;40.10;;;;;;6250762;28;20447;-62
2022/03/16 15:36:50;;;;;;;15.23;13.70;;;14.20;40.30;;;;;;6250862;28;20758;-63
2022/03/16 15:43:10;;;;;;;14.63;13.23;;;14.20;40.30;;;;;;6227592;28;20474;-64
2022/03/16 15:46:15;;;;;;;14.83;13.43;;;14.10;40.50;;;;;;6250229;28;20880;-63
2022/03/16 15:49:40;;;;;;;14.37;13.03;;;14.00;40.70;;;;;;6250286;28;20815;-63
2022/03/16 15:52:43;;;;;;;15.47;13.90;;;14.00;41.10;;;;;;6251422;28;20467;-63
2022/03/16 15:55:48;;;;;;;16.63;13.87;;;13.90;41.00;;;;;;6250419;28;20474;-63
2022/03/16 15:58:54;;;;;;;15.27;13.77;;;13.90;41.20;;;;;;6250461;28;20540;-64
2022/03/16 16:01:58;;;;;;;14.47;13.10;;;13.90;41.20;;;;;;6270450;28;20477;-64
2022/03/16 16:05:03;;;;;;;14.90;13.37;;;13.90;41.10;;;;;;6251826;28;20476;-62
2022/03/16 16:08:06;;;;;;;14.60;13.20;;;13.90;41.40;;;;;;6221835;28;20503;-62
2022/03/16 16:11:11;;;;;;;14.27;12.90;;;13.90;40.90;;;;;;6225582;28;20491;-64
2022/03/16 16:14:14;;;;;;;17.10;14.80;;;13.90;40.90;;;;;;6247379;28;20490;-61
2022/03/16 16:17:17;;;;;;;15.43;13.93;;;13.90;41.30;;;;;;6250123;28;20803;-63